Time;durP1;ratioP1;P1;durP2;ratioP2;P2;SDS_P1;SDS_P2;PMS_P1;PMS_P2;Temp;Humidity;BMP_temperature;BMP_pressure;BME280_temperature;BME280_humidity;BME280_pressure;Samples;Min_cycle;Max_cycle;Signal;HPM_P1;HPM_P2
2023/07/10 00:01:50;;;;;;;21.50;11.80;;;21.30;99.90;;;;;;5063750;28;20050;-90
2023/07/10 00:04:20;;;;;;;17.58;10.52;;;20.50;99.90;;;;;;4954315;28;20483;-90
2023/07/10 00:06:49;;;;;;;17.27;10.50;;;20.20;99.90;;;;;;4986133;28;20040;-89
2023/07/10 00:09:18;;;;;;;21.27;11.68;;;20.20;99.90;;;;;;4984382;28;20130;-89
2023/07/10 00:11:47;;;;;;;17.25;10.98;;;20.90;99.90;;;;;;4963939;28;20452;-89
2023/07/10 00:14:24;;;;;;;18.55;11.15;;;21.50;99.90;;;;;;4983478;28;20036;-91
2023/07/10 00:16:55;;;;;;;14.80;10.85;;;20.20;99.90;;;;;;4968188;28;20394;-90
2023/07/10 00:19:24;;;;;;;20.88;11.48;;;21.30;99.90;;;;;;4975112;28;20050;-90
2023/07/10 00:21:53;;;;;;;23.05;11.75;;;21.30;99.90;;;;;;4967973;28;20187;-89
2023/07/10 00:24:22;;;;;;;15.30;11.20;;;20.40;99.90;;;;;;5069553;28;20053;-91
2023/07/10 00:27:13;;;;;;;14.85;11.40;;;21.70;99.90;;;;;;4962738;28;20125;-90
2023/07/10 00:29:44;;;;;;;20.25;11.32;;;21.90;99.90;;;;;;4972733;28;20034;-89
2023/07/10 00:32:12;;;;;;;18.42;11.73;;;21.50;99.90;;;;;;4967368;28;20031;-89
2023/07/10 00:34:37;;;;;;;21.48;12.95;;;21.50;99.90;;;;;;5057763;28;20091;-90
2023/07/10 00:37:30;;;;;;;19.75;12.05;;;21.30;99.90;;;;;;5005686;28;20161;-90
2023/07/10 00:40:20;;;;;;;19.45;12.27;;;20.70;99.90;;;;;;4991914;28;20581;-89
2023/07/10 00:43:19;;;;;;;;;;;21.10;99.90;;;;;;4962461;28;20043;-89
2023/07/10 00:46:27;;;;;;;18.95;10.93;;;20.40;99.90;;;;;;5032165;28;19921;-89
2023/07/10 00:49:14;;;;;;;17.17;12.30;;;20.60;99.90;;;;;;5028352;28;20128;-89
2023/07/10 00:52:13;;;;;;;16.13;11.38;;;20.20;99.90;;;;;;5039719;28;20041;-91
2023/07/10 00:54:57;;;;;;;17.45;11.77;;;20.80;99.90;;;;;;5011592;28;20053;-89
2023/07/10 00:57:37;;;;;;;17.27;11.57;;;20.50;99.90;;;;;;5027204;28;20537;-88
2023/07/10 01:00:21;;;;;;;15.70;10.38;;;21.10;99.90;;;;;;5028879;28;20045;-90
2023/07/10 01:03:34;;;;;;;12.82;11.27;;;20.50;99.90;;;;;;5031626;28;20132;-90
2023/07/10 01:06:27;;;;;;;16.75;12.55;;;21.50;99.90;;;;;;5020650;28;20053;-91
2023/07/10 01:09:22;;;;;;;18.83;14.68;;;21.10;99.90;;;;;;5011828;28;20099;-90
2023/07/10 01:12:04;;;;;;;;;;;;;;;;;;;;;
2023/07/10 01:15:30;;;;;;;29.05;19.95;;;21.40;99.90;;;;;;5001182;28;20490;-90
2023/07/10 01:36:16;;;;;;;37.45;23.30;;;19.50;99.90;;;;;;4907824;29;20051;-90
2023/07/10 01:38:51;;;;;;;30.60;22.60;;;21.30;99.90;;;;;;4893603;28;20594;-90
2023/07/10 01:41:41;;;;;;;31.42;22.83;;;20.10;99.90;;;;;;4905290;29;20059;-87
2023/07/10 01:44:24;;;;;;;35.73;22.30;;;20.80;99.90;;;;;;4865120;29;20111;-89
2023/07/10 01:46:50;;;;;;;32.72;20.92;;;19.80;99.90;;;;;;4935068;28;20703;-89
2023/07/10 01:49:23;;;;;;;31.73;20.65;;;20.40;99.90;;;;;;4941279;28;20096;-89
2023/07/10 01:51:54;;;;;;;28.13;19.50;;;19.70;99.90;;;;;;4955822;28;20035;-89
2023/07/10 01:54:20;;;;;;;29.25;19.35;;;19.80;99.90;;;;;;5058231;28;20054;-89
2023/07/10 01:56:47;;;;;;;26.20;18.73;;;21.00;99.90;;;;;;4969149;28;20103;-90
2023/07/10 01:59:13;;;;;;;26.65;19.15;;;21.00;99.90;;;;;;4985330;28;20125;-89
2023/07/10 02:01:39;;;;;;;24.90;18.23;;;20.50;99.90;;;;;;5061923;28;20103;-89
2023/07/10 02:04:05;;;;;;;26.67;18.55;;;20.90;99.90;;;;;;4966483;28;20055;-89
2023/07/10 02:06:33;;;;;;;21.23;17.58;;;19.90;99.90;;;;;;4961447;28;20050;-89
2023/07/10 02:09:02;;;;;;;23.70;17.38;;;19.80;99.90;;;;;;5059734;28;20391;-90
2023/07/10 02:11:28;;;;;;;22.90;18.13;;;19.60;99.90;;;;;;4973076;28;20418;-90
2023/07/10 02:13:57;;;;;;;24.23;17.48;;;20.10;99.90;;;;;;4964961;28;20038;-89
2023/07/10 02:16:23;;;;;;;22.25;18.13;;;19.50;99.90;;;;;;4963970;28;20436;-90
2023/07/10 02:18:55;;;;;;;22.65;17.58;;;19.60;99.90;;;;;;4960769;28;20046;-91
2023/07/10 02:21:21;;;;;;;22.80;16.60;;;20.50;99.90;;;;;;4968342;28;20103;-89
2023/07/10 02:23:49;;;;;;;27.33;18.95;;;19.50;99.90;;;;;;4967230;28;20117;-89
2023/07/10 02:26:26;;;;;;;24.42;17.08;;;19.80;99.90;;;;;;4962006;28;20042;-90
2023/07/10 02:28:52;;;;;;;19.42;16.20;;;20.30;99.90;;;;;;4954277;28;20043;-89
2023/07/10 02:31:20;;;;;;;21.05;15.95;;;20.80;99.90;;;;;;4969251;28;20050;-89
2023/07/10 02:33:46;;;;;;;22.00;15.18;;;20.60;99.90;;;;;;4992439;28;20054;-89
2023/07/10 02:36:13;;;;;;;19.30;14.45;;;20.80;99.90;;;;;;5053248;28;20039;-89
2023/07/10 02:38:39;;;;;;;20.52;14.07;;;19.90;99.90;;;;;;5072404;28;20119;-90
2023/07/10 02:41:10;;;;;;;17.92;14.07;;;20.10;99.90;;;;;;4971484;28;20398;-89
2023/07/10 02:43:36;;;;;;;15.23;12.38;;;19.80;99.90;;;;;;5027896;28;20121;-90
2023/07/10 02:46:02;;;;;;;15.82;13.38;;;19.60;99.90;;;;;;5056829;28;20139;-89
2023/07/10 02:48:28;;;;;;;20.45;14.55;;;20.70;99.90;;;;;;4981958;28;20483;-89
2023/07/10 02:50:55;;;;;;;17.38;13.35;;;20.50;99.90;;;;;;4983599;28;20507;-90
2023/07/10 02:53:24;;;;;;;17.42;13.30;;;20.60;99.90;;;;;;4940187;28;20391;-90
2023/07/10 02:55:49;;;;;;;17.73;12.70;;;20.30;99.90;;;;;;4973072;28;20132;-90
2023/07/10 02:58:16;;;;;;;19.48;13.15;;;20.60;99.90;;;;;;5075420;28;20459;-90
2023/07/10 03:00:53;;;;;;;16.17;11.48;;;20.60;99.90;;;;;;4967147;28;20693;-89
2023/07/10 03:03:19;;;;;;;;;;;19.70;99.90;;;;;;4976121;28;20048;-89
2023/07/10 03:05:56;;;;;;;17.02;12.40;;;19.60;99.90;;;;;;4975008;28;20001;-89
2023/07/10 03:08:28;;;;;;;14.68;11.70;;;20.00;99.90;;;;;;4973402;28;20044;-89
2023/07/10 03:11:06;;;;;;;17.92;11.88;;;20.30;99.90;;;;;;5059327;28;20070;-88
2023/07/10 03:13:32;;;;;;;16.55;12.05;;;20.70;99.90;;;;;;5069605;28;20117;-90
2023/07/10 03:16:05;;;;;;;14.65;11.80;;;20.50;99.90;;;;;;5059066;28;20039;-90
2023/07/10 03:18:31;;;;;;;17.48;11.80;;;19.90;99.90;;;;;;4971217;28;20421;-89
2023/07/10 03:20:56;;;;;;;15.93;11.48;;;20.40;99.90;;;;;;4948129;28;20055;-90
2023/07/10 03:23:22;;;;;;;15.73;11.63;;;20.10;99.90;;;;;;4966152;28;20064;-89
2023/07/10 03:25:48;;;;;;;11.35;9.82;;;19.70;99.90;;;;;;4974341;28;20493;-90
2023/07/10 03:28:15;;;;;;;14.00;11.43;;;20.50;99.90;;;;;;5009942;28;20113;-89
2023/07/10 03:30:41;;;;;;;15.38;10.90;;;20.30;99.90;;;;;;4969271;28;20053;-89
2023/07/10 03:33:07;;;;;;;14.85;9.80;;;20.60;99.90;;;;;;4952907;28;20048;-89
2023/07/10 03:35:32;;;;;;;15.82;10.15;;;19.70;99.90;;;;;;4965547;28;20134;-89
2023/07/10 03:37:58;;;;;;;13.68;9.88;;;20.30;99.90;;;;;;5012495;28;20046;-89
2023/07/10 03:40:24;;;;;;;13.18;9.93;;;19.80;99.90;;;;;;4974944;28;20050;-90
2023/07/10 03:42:50;;;;;;;12.77;9.50;;;20.70;99.90;;;;;;4970608;28;20038;-90
2023/07/10 03:45:18;;;;;;;11.75;8.75;;;20.50;99.90;;;;;;5064687;28;20387;-89
2023/07/10 03:47:44;;;;;;;11.00;8.68;;;19.80;99.90;;;;;;5062386;28;20058;-89
2023/07/10 03:50:10;;;;;;;11.80;7.45;;;20.40;99.90;;;;;;5069396;28;20039;-89
2023/07/10 03:52:36;;;;;;;9.32;7.30;;;19.70;99.90;;;;;;5078377;28;20060;-89
2023/07/10 03:55:02;;;;;;;11.05;8.10;;;19.60;99.90;;;;;;4967748;28;20034;-89
2023/07/10 03:57:28;;;;;;;11.75;8.00;;;20.40;99.90;;;;;;4951478;28;20043;-89
2023/07/10 03:59:53;;;;;;;11.45;7.80;;;19.10;99.90;;;;;;4967683;28;20046;-89
2023/07/10 04:02:19;;;;;;;8.80;6.65;;;19.80;99.90;;;;;;4990144;28;20114;-89
2023/07/10 04:04:45;;;;;;;10.25;6.80;;;19.90;99.90;;;;;;5055741;28;20047;-89
2023/07/10 04:07:11;;;;;;;9.13;6.60;;;19.80;99.90;;;;;;4989441;28;20038;-89
2023/07/10 04:09:36;;;;;;;7.35;6.00;;;20.00;99.90;;;;;;4973759;28;20038;-89
2023/07/10 04:12:02;;;;;;;8.93;6.47;;;20.50;99.90;;;;;;4986841;28;20062;-89
2023/07/10 04:14:28;;;;;;;7.63;6.25;;;20.20;99.90;;;;;;4982899;28;20070;-89
2023/07/10 04:16:54;;;;;;;10.20;6.03;;;20.30;99.90;;;;;;4971237;28;20073;-89
2023/07/10 04:19:20;;;;;;;8.43;6.55;;;20.10;99.90;;;;;;4973004;28;20096;-89
2023/07/10 04:21:46;;;;;;;8.75;6.65;;;20.20;99.90;;;;;;4969192;28;20109;-89
2023/07/10 04:24:15;;;;;;;9.43;6.55;;;19.90;99.90;;;;;;4955694;28;20131;-89
2023/07/10 04:26:40;;;;;;;8.45;6.70;;;19.80;99.90;;;;;;4960964;28;20040;-89
2023/07/10 04:29:06;;;;;;;9.68;6.38;;;20.50;99.90;;;;;;4984467;28;20116;-89
2023/07/10 04:31:34;;;;;;;9.40;6.65;;;20.10;99.90;;;;;;4972481;28;20038;-90
2023/07/10 04:34:00;;;;;;;11.18;7.60;;;20.10;99.90;;;;;;4960142;28;20034;-90
2023/07/10 04:36:26;;;;;;;9.45;7.15;;;20.60;99.90;;;;;;4964208;28;20065;-89
2023/07/10 04:38:52;;;;;;;7.65;6.95;;;19.90;99.90;;;;;;4985730;28;20068;-89
2023/07/10 04:41:23;;;;;;;8.82;6.80;;;20.50;99.90;;;;;;4973271;28;20043;-88
2023/07/10 04:43:50;;;;;;;10.15;7.18;;;20.10;99.90;;;;;;4969173;28;20035;-89
2023/07/10 04:46:17;;;;;;;8.75;6.45;;;20.50;99.90;;;;;;5068100;28;20086;-89
2023/07/10 04:48:43;;;;;;;11.38;8.30;;;20.30;99.90;;;;;;4971251;28;20076;-89
2023/07/10 04:51:10;;;;;;;8.07;6.28;;;20.40;99.90;;;;;;4955702;28;20066;-89
2023/07/10 04:53:36;;;;;;;7.47;6.47;;;20.20;99.90;;;;;;4998153;28;20167;-89
2023/07/10 04:56:05;;;;;;;7.93;6.03;;;20.00;99.90;;;;;;5040319;28;20049;-89
2023/07/10 04:58:56;;;;;;;8.18;6.35;;;20.00;99.90;;;;;;4961518;28;20054;-89
2023/07/10 05:01:27;;;;;;;6.95;4.53;;;20.70;99.90;;;;;;4974110;28;20602;-89
2023/07/10 05:03:53;;;;;;;5.53;4.22;;;20.70;99.90;;;;;;4982276;28;20057;-88
2023/07/10 05:06:19;;;;;;;5.93;4.20;;;20.50;99.90;;;;;;4979433;28;20770;-87
2023/07/10 05:08:46;;;;;;;7.05;4.70;;;20.50;99.90;;;;;;4975575;28;20394;-87
2023/07/10 05:11:12;;;;;;;7.32;4.32;;;20.50;99.90;;;;;;4992105;28;20050;-87
2023/07/10 05:13:38;;;;;;;4.50;3.83;;;20.10;99.90;;;;;;4957540;28;20070;-88
2023/07/10 05:16:04;;;;;;;6.43;4.25;;;20.00;99.90;;;;;;4957011;28;20506;-87
2023/07/10 05:18:30;;;;;;;6.93;4.45;;;20.10;99.90;;;;;;4965035;28;20038;-87
2023/07/10 05:20:57;;;;;;;6.68;4.63;;;20.20;99.90;;;;;;4958554;28;20088;-87
2023/07/10 05:23:25;;;;;;;5.65;4.13;;;20.30;99.90;;;;;;5049247;28;20041;-87
2023/07/10 05:26:03;;;;;;;5.00;3.88;;;19.80;99.90;;;;;;4990354;28;20110;-86
2023/07/10 05:28:30;;;;;;;7.75;5.05;;;19.90;99.90;;;;;;5070780;28;20039;-87
2023/07/10 05:30:59;;;;;;;4.88;4.28;;;20.20;99.90;;;;;;4950251;28;20038;-87
2023/07/10 05:33:28;;;;;;;7.13;4.65;;;20.00;99.90;;;;;;4986033;28;20118;-88
2023/07/10 05:35:58;;;;;;;6.38;4.85;;;20.20;99.90;;;;;;4980225;28;20485;-87
2023/07/10 05:38:27;;;;;;;8.68;4.90;;;20.40;99.90;;;;;;4973679;28;20697;-87
2023/07/10 05:40:53;;;;;;;6.97;4.95;;;20.20;99.90;;;;;;4986955;28;20049;-87
2023/07/10 05:43:19;;;;;;;7.90;5.03;;;20.40;99.90;;;;;;4967157;28;20051;-88
2023/07/10 05:45:46;;;;;;;9.38;5.18;;;20.50;99.90;;;;;;4960988;28;20129;-87
2023/07/10 05:48:14;;;;;;;8.02;5.10;;;20.10;99.90;;;;;;4976853;28;20115;-88
2023/07/10 05:50:43;;;;;;;9.68;4.78;;;20.10;99.90;;;;;;4949713;28;20038;-88
2023/07/10 05:53:08;;;;;;;6.00;4.53;;;20.60;99.90;;;;;;4959450;28;20070;-88
2023/07/10 05:55:34;;;;;;;6.38;4.30;;;20.80;99.90;;;;;;4957673;28;20157;-88
2023/07/10 05:58:00;;;;;;;7.00;4.50;;;20.50;99.90;;;;;;5065461;28;20494;-89
2023/07/10 06:00:26;;;;;;;7.45;4.93;;;20.40;99.90;;;;;;4966930;28;20042;-89
2023/07/10 06:02:52;;;;;;;6.25;4.55;;;20.80;99.90;;;;;;4971490;28;20099;-88
2023/07/10 06:05:17;;;;;;;8.18;4.00;;;20.40;99.90;;;;;;4955999;28;20043;-88
2023/07/10 06:07:43;;;;;;;6.25;4.10;;;20.60;99.90;;;;;;5046365;28;20047;-88
2023/07/10 06:10:09;;;;;;;7.75;4.10;;;20.40;99.90;;;;;;4964729;28;20116;-88
2023/07/10 06:12:35;;;;;;;6.13;3.83;;;20.80;99.90;;;;;;4988800;28;20057;-88
2023/07/10 06:15:00;;;;;;;6.57;4.63;;;20.70;99.90;;;;;;4956035;28;20118;-88
2023/07/10 06:17:26;;;;;;;7.82;4.40;;;20.80;99.90;;;;;;4965928;28;20043;-88
2023/07/10 06:19:52;;;;;;;7.03;3.90;;;20.20;99.90;;;;;;4973749;28;20043;-88
2023/07/10 06:22:18;;;;;;;5.03;3.55;;;20.30;99.90;;;;;;5054687;28;20053;-89
2023/07/10 06:24:45;;;;;;;5.95;3.95;;;20.30;99.90;;;;;;5072655;28;20534;-88
2023/07/10 06:27:11;;;;;;;6.70;3.40;;;20.40;99.90;;;;;;4975754;28;20030;-88
2023/07/10 06:29:37;;;;;;;6.55;3.22;;;20.60;99.90;;;;;;4994029;28;20042;-88
2023/07/10 06:32:04;;;;;;;5.85;3.47;;;20.70;99.90;;;;;;4978879;28;20038;-88
2023/07/10 06:34:30;;;;;;;5.97;3.42;;;20.60;99.90;;;;;;4959970;28;20042;-88
2023/07/10 06:36:56;;;;;;;5.43;3.33;;;20.80;99.90;;;;;;5059765;28;20486;-88
2023/07/10 06:39:21;;;;;;;6.53;3.65;;;20.70;99.90;;;;;;4940914;28;20443;-88
2023/07/10 06:41:47;;;;;;;8.27;3.10;;;21.00;99.90;;;;;;4963729;28;20134;-88
2023/07/10 06:44:14;;;;;;;6.20;3.40;;;21.20;99.90;;;;;;4975082;28;20050;-88
2023/07/10 06:46:40;;;;;;;6.30;3.00;;;21.10;99.90;;;;;;5047118;28;20043;-88
2023/07/10 06:49:06;;;;;;;6.35;2.90;;;21.30;99.90;;;;;;4959354;28;20053;-87
2023/07/10 06:51:33;;;;;;;7.70;3.45;;;21.20;99.90;;;;;;4959423;28;20042;-87
2023/07/10 06:53:58;;;;;;;9.63;3.33;;;21.30;99.90;;;;;;4939914;28;20035;-88
2023/07/10 06:56:24;;;;;;;9.15;3.00;;;21.20;99.90;;;;;;5040806;28;20100;-89
2023/07/10 06:58:50;;;;;;;7.82;3.45;;;21.40;99.90;;;;;;5035854;28;20039;-89
2023/07/10 07:01:15;;;;;;;7.15;3.10;;;21.70;99.90;;;;;;4972197;28;20047;-89
2023/07/10 07:03:41;;;;;;;6.78;3.45;;;21.90;99.90;;;;;;5055614;28;20046;-88
2023/07/10 07:06:07;;;;;;;12.90;3.75;;;21.60;99.90;;;;;;5049091;28;20076;-88
2023/07/10 07:08:33;;;;;;;7.32;2.88;;;22.10;99.90;;;;;;4955530;28;20038;-89
2023/07/10 07:10:59;;;;;;;4.80;2.70;;;22.10;99.90;;;;;;4980664;28;20037;-89
2023/07/10 07:13:25;;;;;;;5.40;2.63;;;21.90;99.90;;;;;;4954246;28;20035;-89
2023/07/10 07:15:53;;;;;;;6.80;3.08;;;22.30;99.90;;;;;;4971686;28;20107;-89
2023/07/10 07:18:20;;;;;;;4.28;2.40;;;22.20;99.90;;;;;;4956945;28;20130;-87
2023/07/10 07:20:46;;;;;;;5.55;2.85;;;22.10;99.90;;;;;;4974338;28;20487;-87
2023/07/10 07:23:12;;;;;;;8.15;3.00;;;22.20;99.90;;;;;;4974848;28;20082;-86
2023/07/10 07:25:41;;;;;;;6.10;2.63;;;22.40;99.90;;;;;;5012551;28;20658;-86
2023/07/10 07:28:07;;;;;;;7.30;3.20;;;22.20;99.90;;;;;;5001175;28;20066;-87
2023/07/10 07:30:34;;;;;;;5.80;2.53;;;22.30;99.90;;;;;;5058981;28;20083;-88
2023/07/10 07:33:01;;;;;;;5.20;2.17;;;22.20;99.90;;;;;;4957808;28;20038;-88
2023/07/10 07:35:27;;;;;;;5.28;2.92;;;22.20;99.90;;;;;;4983059;28;20049;-90
2023/07/10 07:37:53;;;;;;;4.88;2.72;;;22.20;99.90;;;;;;5002148;28;20031;-90
2023/07/10 07:40:19;;;;;;;5.15;2.50;;;22.40;99.90;;;;;;5039336;28;20613;-90
2023/07/10 07:42:46;;;;;;;5.88;2.63;;;22.00;99.90;;;;;;4975416;28;20038;-89
2023/07/10 07:45:13;;;;;;;4.90;2.50;;;22.20;99.90;;;;;;4974410;28;20049;-91
2023/07/10 07:47:40;;;;;;;9.35;3.00;;;22.30;99.90;;;;;;4974723;28;20054;-90
2023/07/10 07:50:08;;;;;;;11.77;3.13;;;22.30;99.90;;;;;;4963108;28;20038;-90
2023/07/10 07:52:34;;;;;;;9.18;3.20;;;22.20;99.90;;;;;;4966340;28;20082;-91
2023/07/10 07:55:00;;;;;;;9.00;3.08;;;22.10;99.90;;;;;;4976712;28;20668;-89
2023/07/10 07:57:25;;;;;;;6.85;2.58;;;22.10;99.90;;;;;;4961752;28;20091;-91
2023/07/10 07:59:52;;;;;;;6.32;2.63;;;22.40;99.90;;;;;;4974204;28;20581;-91
2023/07/10 08:02:18;;;;;;;6.10;2.83;;;22.50;99.90;;;;;;4957714;28;20038;-91
2023/07/10 08:04:43;;;;;;;6.70;2.47;;;22.30;99.90;;;;;;4957921;28;20043;-91
2023/07/10 08:07:10;;;;;;;7.40;2.70;;;22.60;99.90;;;;;;4983024;28;20398;-90
2023/07/10 08:09:36;;;;;;;6.75;2.47;;;22.50;99.90;;;;;;4988392;28;20126;-90
2023/07/10 08:12:04;;;;;;;9.60;3.15;;;22.70;99.90;;;;;;4956961;28;20507;-90
2023/07/10 08:14:29;;;;;;;6.15;2.38;;;22.80;99.90;;;;;;5060174;28;20039;-92
2023/07/10 08:16:55;;;;;;;5.97;2.55;;;22.50;99.90;;;;;;5058067;28;20035;-90
2023/07/10 08:19:21;;;;;;;5.65;2.40;;;22.60;99.90;;;;;;4970408;28;20133;-89
2023/07/10 08:21:47;;;;;;;8.63;2.47;;;22.40;99.90;;;;;;4961305;28;20042;-91
2023/07/10 08:24:14;;;;;;;6.30;2.10;;;22.50;99.90;;;;;;4970484;28;20057;-90
2023/07/10 08:26:40;;;;;;;7.82;2.50;;;22.60;99.90;;;;;;4979535;28;20031;-90
2023/07/10 08:29:34;;;;;;;4.15;2.03;;;22.70;99.90;;;;;;4981782;28;20050;-91
2023/07/10 08:32:01;;;;;;;5.27;2.10;;;22.70;99.90;;;;;;4960427;28;20053;-91
2023/07/10 08:34:28;;;;;;;7.00;2.60;;;23.20;99.90;;;;;;4976184;28;20285;-89
2023/07/10 08:36:54;;;;;;;6.80;2.50;;;23.00;99.90;;;;;;4970708;28;20047;-86
2023/07/10 08:39:24;;;;;;;6.35;2.38;;;23.20;99.90;;;;;;5039975;28;20043;-88
2023/07/10 08:41:58;;;;;;;7.20;2.30;;;22.70;99.90;;;;;;4956791;28;20039;-88
2023/07/10 08:44:30;;;;;;;7.22;2.53;;;22.90;99.90;;;;;;4974482;28;20057;-89
2023/07/10 08:46:59;;;;;;;8.02;2.28;;;23.20;99.90;;;;;;4976126;28;20068;-88
2023/07/10 08:49:40;;;;;;;5.43;1.92;;;23.20;99.90;;;;;;4970446;28;20055;-87
2023/07/10 08:52:10;;;;;;;5.88;2.13;;;23.30;99.90;;;;;;4991369;28;20607;-88
2023/07/10 08:54:35;;;;;;;9.07;2.20;;;23.30;99.90;;;;;;4990865;28;20108;-86
2023/07/10 08:57:31;;;;;;;4.72;2.00;;;23.40;99.90;;;;;;4958399;28;20043;-88
2023/07/10 09:00:09;;;;;;;8.05;2.10;;;23.40;99.90;;;;;;5069735;28;20089;-87
2023/07/10 09:03:02;;;;;;;4.50;1.80;;;23.40;99.90;;;;;;4974153;28;20049;-88
2023/07/10 09:05:30;;;;;;;5.28;2.22;;;23.90;99.90;;;;;;5059371;28;20038;-88
2023/07/10 09:08:05;;;;;;;6.88;2.08;;;24.10;99.90;;;;;;4972943;28;20039;-87
2023/07/10 09:10:39;;;;;;;3.30;1.90;;;24.10;99.90;;;;;;5067512;28;20042;-88
2023/07/10 09:13:13;;;;;;;6.53;2.03;;;24.20;99.90;;;;;;4974026;28;20092;-89
2023/07/10 09:15:46;;;;;;;3.70;1.80;;;24.40;99.90;;;;;;4974633;28;20119;-87
2023/07/10 09:18:30;;;;;;;4.73;1.97;;;24.70;99.90;;;;;;4974177;28;20046;-87
2023/07/10 09:21:06;;;;;;;5.18;2.03;;;24.40;99.90;;;;;;4973203;28;20084;-88
2023/07/10 09:23:34;;;;;;;6.00;2.38;;;24.90;99.90;;;;;;4973745;28;20072;-88
2023/07/10 09:26:10;;;;;;;6.75;2.30;;;24.60;99.90;;;;;;4974245;28;20047;-88
2023/07/10 09:28:39;;;;;;;5.40;2.00;;;24.90;99.90;;;;;;4974120;28;20616;-88
2023/07/10 09:31:08;;;;;;;4.88;2.22;;;24.90;99.90;;;;;;4973393;28;20045;-90
2023/07/10 09:33:50;;;;;;;3.90;2.03;;;25.40;99.90;;;;;;4968533;28;20096;-89
2023/07/10 09:36:20;;;;;;;4.03;1.90;;;25.40;99.90;;;;;;4972878;28;20125;-89
2023/07/10 09:38:48;;;;;;;5.88;2.22;;;25.30;99.90;;;;;;4990052;28;20042;-89
2023/07/10 09:41:26;;;;;;;5.93;2.25;;;25.50;99.90;;;;;;4973729;28;20050;-89
2023/07/10 09:43:58;;;;;;;7.57;2.17;;;25.70;99.90;;;;;;4968707;28;20390;-91
2023/07/10 09:46:33;;;;;;;5.15;2.25;;;26.30;99.90;;;;;;4973133;28;20078;-90
2023/07/10 09:49:02;;;;;;;4.60;2.00;;;26.40;99.90;;;;;;4973182;28;20525;-89
2023/07/10 09:51:29;;;;;;;5.60;2.08;;;26.00;99.90;;;;;;4973702;28;20050;-89
2023/07/10 09:54:07;;;;;;;5.57;2.30;;;26.70;99.90;;;;;;4970342;28;20085;-89
2023/07/10 09:56:35;;;;;;;3.60;1.70;;;26.10;99.90;;;;;;5088275;28;20042;-88
2023/07/10 09:59:12;;;;;;;10.23;2.33;;;25.80;99.90;;;;;;4976869;28;20050;-88
2023/07/10 10:01:38;;;;;;;6.05;2.25;;;25.60;99.90;;;;;;4973515;28;20125;-89
2023/07/10 10:04:04;;;;;;;3.95;1.92;;;25.60;99.90;;;;;;4972810;28;20137;-89
2023/07/10 10:06:31;;;;;;;5.10;2.17;;;25.60;99.90;;;;;;4960605;28;20035;-89
2023/07/10 10:08:57;;;;;;;8.43;2.35;;;25.90;99.90;;;;;;4957114;28;20034;-90
2023/07/10 10:11:41;;;;;;;4.55;1.83;;;25.70;99.90;;;;;;4956605;28;20100;-88
2023/07/10 10:14:17;;;;;;;6.18;1.80;;;25.30;99.90;;;;;;4973063;28;20046;-89
2023/07/10 10:16:50;;;;;;;6.43;2.35;;;25.20;99.90;;;;;;4969485;28;20039;-89
2023/07/10 10:19:25;;;;;;;6.60;2.80;;;25.80;99.90;;;;;;5074341;28;20046;-88
2023/07/10 10:21:51;;;;;;;5.97;2.60;;;25.90;99.90;;;;;;4972006;28;20061;-88
2023/07/10 10:24:17;;;;;;;6.65;2.38;;;26.20;99.90;;;;;;4972674;28;20042;-89
2023/07/10 10:27:15;;;;;;;4.82;2.28;;;26.30;99.90;;;;;;4961247;28;20104;-89
2023/07/10 10:29:56;;;;;;;11.02;2.30;;;26.70;99.90;;;;;;5002120;28;20093;-90
2023/07/10 10:32:25;;;;;;;7.05;2.10;;;26.50;99.90;;;;;;5013722;28;20035;-88
2023/07/10 10:35:05;;;;;;;9.35;2.78;;;27.20;99.90;;;;;;5055386;28;20091;-89
2023/07/10 10:38:15;;;;;;;4.65;2.17;;;26.80;99.90;;;;;;4965207;28;20046;-89
2023/07/10 10:40:54;;;;;;;6.53;2.40;;;26.50;99.90;;;;;;4986879;28;20050;-90
2023/07/10 10:43:32;;;;;;;5.80;2.28;;;26.70;99.90;;;;;;4967499;28;20048;-88
2023/07/10 10:46:09;;;;;;;7.07;2.08;;;26.20;99.90;;;;;;4990914;28;20042;-89
2023/07/10 10:48:55;;;;;;;6.80;2.38;;;26.60;99.90;;;;;;5050867;28;20502;-90
2023/07/10 10:51:51;;;;;;;7.00;2.28;;;27.20;99.90;;;;;;4973346;28;20050;-91
2023/07/10 10:54:27;;;;;;;6.45;2.40;;;26.70;99.90;;;;;;4989116;28;20394;-89
2023/07/10 10:57:24;;;;;;;7.97;2.50;;;27.10;99.90;;;;;;4966176;28;20038;-90
2023/07/10 11:00:12;;;;;;;5.32;2.08;;;27.10;99.90;;;;;;5060693;28;20122;-89
2023/07/10 11:03:15;;;;;;;6.75;2.05;;;27.80;99.90;;;;;;4982898;28;20053;-88
2023/07/10 11:05:47;;;;;;;7.80;2.40;;;28.20;99.90;;;;;;4993366;28;20038;-91
2023/07/10 11:08:41;;;;;;;4.00;1.70;;;28.10;99.90;;;;;;4989139;28;20042;-91
2023/07/10 11:11:23;;;;;;;5.40;2.20;;;27.90;99.90;;;;;;5001380;28;20038;-90
2023/07/10 11:13:49;;;;;;;4.43;2.15;;;28.10;99.90;;;;;;4972071;28;20282;-90
2023/07/10 11:16:15;;;;;;;6.00;2.13;;;28.50;99.90;;;;;;4972862;28;20042;-91
2023/07/10 11:18:41;;;;;;;5.05;2.03;;;28.90;99.90;;;;;;4952968;28;20046;-90
2023/07/10 11:21:07;;;;;;;6.38;2.00;;;28.60;99.90;;;;;;4941156;28;20043;-89
2023/07/10 11:23:40;;;;;;;7.07;1.80;;;27.90;99.90;;;;;;4957322;28;20048;-90
2023/07/10 11:26:15;;;;;;;5.47;2.17;;;28.10;99.90;;;;;;4970532;28;20050;-90
2023/07/10 11:28:48;;;;;;;4.57;1.83;;;28.20;99.90;;;;;;4983154;28;20038;-91
2023/07/10 11:31:28;;;;;;;4.72;2.00;;;28.50;99.90;;;;;;4975081;28;20516;-88
2023/07/10 11:34:28;;;;;;;6.68;2.03;;;28.50;40.30;;;;;;4975225;28;20115;-89
2023/07/10 11:36:55;;;;;;;6.93;1.83;;;28.60;1.00;;;;;;4974431;28;20089;-88
2023/07/10 11:39:36;;;;;;;7.00;2.22;;;28.20;99.90;;;;;;4974352;28;20054;-91
2023/07/10 11:42:02;;;;;;;5.47;2.15;;;28.20;98.00;;;;;;5063213;28;20679;-91
2023/07/10 11:44:33;;;;;;;2.53;1.45;;;27.60;99.90;;;;;;5029134;28;20041;-88
2023/07/10 11:47:05;;;;;;;4.35;1.60;;;27.60;97.00;;;;;;4976944;28;20035;-89
2023/07/10 11:49:34;;;;;;;4.50;1.65;;;27.00;96.00;;;;;;4970263;28;20054;-90
2023/07/10 11:52:15;;;;;;;4.80;1.90;;;26.20;84.90;;;;;;5077233;28;20054;-88
2023/07/10 11:54:47;;;;;;;5.75;1.90;;;26.90;23.80;;;;;;4989449;28;20458;-88
2023/07/10 11:57:25;;;;;;;8.13;2.50;;;27.30;1.00;;;;;;5073902;28;20050;-88
2023/07/10 12:00:04;;;;;;;4.15;1.70;;;26.90;1.00;;;;;;4977470;28;20130;-89
2023/07/10 12:02:33;;;;;;;5.45;1.90;;;27.60;1.00;;;;;;4985422;28;20111;-87
2023/07/10 12:05:09;;;;;;;4.57;1.67;;;27.50;1.00;;;;;;4990533;28;20042;-89
2023/07/10 12:07:35;;;;;;;4.22;1.67;;;28.10;1.00;;;;;;4957599;28;20049;-89
2023/07/10 12:10:01;;;;;;;3.42;1.70;;;28.20;1.00;;;;;;5054571;28;20074;-87
2023/07/10 12:12:32;;;;;;;5.72;1.85;;;28.20;1.00;;;;;;4969984;28;20090;-89
2023/07/10 12:15:01;;;;;;;5.25;1.90;;;27.60;1.00;;;;;;5077093;28;20086;-89
2023/07/10 12:17:29;;;;;;;3.80;1.90;;;27.20;1.40;;;;;;5056840;28;20074;-88
2023/07/10 12:19:55;;;;;;;3.58;1.60;;;26.90;1.00;;;;;;5065112;28;20050;-88
2023/07/10 12:22:24;;;;;;;4.80;1.70;;;27.40;1.00;;;;;;4974078;28;20046;-89
2023/07/10 12:24:59;;;;;;;7.00;2.38;;;27.40;1.00;;;;;;4975259;28;20053;-88
2023/07/10 12:27:32;;;;;;;5.68;1.60;;;27.20;99.90;;;;;;4976670;28;20061;-88
2023/07/10 12:29:58;;;;;;;4.00;1.50;;;27.50;99.90;;;;;;4974190;28;20073;-89
2023/07/10 12:32:25;;;;;;;4.43;1.60;;;27.70;90.30;;;;;;4958525;28;20459;-89
2023/07/10 12:34:54;;;;;;;7.18;1.77;;;27.90;99.90;;;;;;4974336;28;20042;-89
2023/07/10 12:37:20;;;;;;;6.88;1.75;;;28.10;99.90;;;;;;4987834;28;20047;-88
2023/07/10 12:39:50;;;;;;;7.70;2.50;;;27.60;93.20;;;;;;4993369;28;20042;-89
2023/07/10 12:42:34;;;;;;;5.22;1.85;;;27.50;1.00;;;;;;5069185;28;20463;-88
2023/07/10 12:45:14;;;;;;;5.40;1.80;;;28.10;28.00;;;;;;4978525;28;20039;-87
2023/07/10 12:47:45;;;;;;;3.88;1.52;;;28.40;99.90;;;;;;5007480;28;20097;-88
2023/07/10 12:50:11;;;;;;;7.28;1.70;;;28.80;99.90;;;;;;5039601;28;20057;-90
2023/07/10 12:52:37;;;;;;;2.88;1.30;;;28.30;99.90;;;;;;4954976;28;20525;-90
2023/07/10 12:55:16;;;;;;;3.65;1.50;;;28.40;99.90;;;;;;5022530;28;20043;-90
2023/07/10 12:57:42;;;;;;;5.68;1.90;;;27.90;99.90;;;;;;5041455;28;20043;-89
2023/07/10 13:00:10;;;;;;;2.38;1.30;;;28.20;99.90;;;;;;5071023;28;20379;-89
2023/07/10 13:02:50;;;;;;;7.38;1.70;;;27.40;99.90;;;;;;5070767;28;20493;-89
2023/07/10 13:05:30;;;;;;;4.30;1.73;;;27.30;1.00;;;;;;5071400;28;20061;-88
2023/07/10 13:07:59;;;;;;;3.90;1.63;;;27.80;99.90;;;;;;4974302;28;20046;-89
2023/07/10 13:10:26;;;;;;;3.78;1.40;;;27.40;1.00;;;;;;5059501;28;20040;-89
2023/07/10 13:12:58;;;;;;;3.15;1.50;;;27.30;1.00;;;;;;5004218;28;20146;-89
2023/07/10 13:15:35;;;;;;;3.70;1.23;;;27.30;99.90;;;;;;5014971;28;20537;-88
2023/07/10 13:18:02;;;;;;;5.00;1.73;;;27.10;99.90;;;;;;5003777;28;20585;-89
2023/07/10 13:20:28;;;;;;;4.45;1.90;;;26.80;86.50;;;;;;5018948;28;20701;-89
2023/07/10 13:22:57;;;;;;;4.65;1.33;;;26.10;99.90;;;;;;4980496;28;20036;-89